sensor_id;sensor_type;location;lat;lon;timestamp;temperature;humidity
7077;DHT22;3579;48.956;9.154;2023-06-14T00:02:09;26.40;36.50
7077;DHT22;3579;48.956;9.154;2023-06-14T00:04:35;26.40;36.50
7077;DHT22;3579;48.956;9.154;2023-06-14T00:07:03;26.40;36.50
7077;DHT22;3579;48.956;9.154;2023-06-14T00:09:29;26.30;36.40
7077;DHT22;3579;48.956;9.154;2023-06-14T00:11:55;26.30;36.50
7077;DHT22;3579;48.956;9.154;2023-06-14T00:14:21;26.30;36.50
7077;DHT22;3579;48.956;9.154;2023-06-14T00:16:47;26.30;36.50
7077;DHT22;3579;48.956;9.154;2023-06-14T00:19:13;26.30;36.50
7077;DHT22;3579;48.956;9.154;2023-06-14T00:21:40;26.30;36.50
7077;DHT22;3579;48.956;9.154;2023-06-14T00:24:07;26.30;36.60
7077;DHT22;3579;48.956;9.154;2023-06-14T00:26:33;26.20;36.50
7077;DHT22;3579;48.956;9.154;2023-06-14T00:28:59;26.20;36.50
7077;DHT22;3579;48.956;9.154;2023-06-14T00:31:25;26.20;36.60
7077;DHT22;3579;48.956;9.154;2023-06-14T00:33:51;26.20;37.20
7077;DHT22;3579;48.956;9.154;2023-06-14T00:36:17;26.20;36.60
7077;DHT22;3579;48.956;9.154;2023-06-14T00:38:43;26.20;36.60
7077;DHT22;3579;48.956;9.154;2023-06-14T00:41:09;26.20;36.70
7077;DHT22;3579;48.956;9.154;2023-06-14T00:43:35;26.10;36.60
7077;DHT22;3579;48.956;9.154;2023-06-14T00:46:01;26.10;36.60
7077;DHT22;3579;48.956;9.154;2023-06-14T00:48:28;26.10;36.70
7077;DHT22;3579;48.956;9.154;2023-06-14T00:50:54;26.10;36.70
7077;DHT22;3579;48.956;9.154;2023-06-14T00:53:21;26.10;36.70
7077;DHT22;3579;48.956;9.154;2023-06-14T00:55:48;26.10;36.80
7077;DHT22;3579;48.956;9.154;2023-06-14T00:58:15;26.10;36.80
7077;DHT22;3579;48.956;9.154;2023-06-14T01:00:41;26.10;36.80
7077;DHT22;3579;48.956;9.154;2023-06-14T01:03:07;26.00;36.80
7077;DHT22;3579;48.956;9.154;2023-06-14T01:05:38;26.00;36.80
7077;DHT22;3579;48.956;9.154;2023-06-14T01:13:29;26.00;36.80
7077;DHT22;3579;48.956;9.154;2023-06-14T01:15:57;25.90;36.80
7077;DHT22;3579;48.956;9.154;2023-06-14T01:18:23;26.00;37.40
7077;DHT22;3579;48.956;9.154;2023-06-14T01:20:50;25.90;36.90
7077;DHT22;3579;48.956;9.154;2023-06-14T01:23:17;25.90;36.80
7077;DHT22;3579;48.956;9.154;2023-06-14T01:25:43;25.90;36.80
7077;DHT22;3579;48.956;9.154;2023-06-14T01:28:11;25.90;36.80
7077;DHT22;3579;48.956;9.154;2023-06-14T01:30:40;25.90;36.90
7077;DHT22;3579;48.956;9.154;2023-06-14T01:33:15;25.90;36.90
7077;DHT22;3579;48.956;9.154;2023-06-14T01:35:46;25.90;36.90
7077;DHT22;3579;48.956;9.154;2023-06-14T01:38:13;25.80;36.90
7077;DHT22;3579;48.956;9.154;2023-06-14T01:40:42;25.80;36.90
7077;DHT22;3579;48.956;9.154;2023-06-14T01:43:10;25.80;36.90
7077;DHT22;3579;48.956;9.154;2023-06-14T01:45:36;25.80;37.00
7077;DHT22;3579;48.956;9.154;2023-06-14T01:48:03;25.80;37.00
7077;DHT22;3579;48.956;9.154;2023-06-14T01:50:30;25.70;36.90
7077;DHT22;3579;48.956;9.154;2023-06-14T01:52:57;25.80;37.00
7077;DHT22;3579;48.956;9.154;2023-06-14T01:55:23;25.70;37.00
7077;DHT22;3579;48.956;9.154;2023-06-14T01:57:51;25.70;37.00
7077;DHT22;3579;48.956;9.154;2023-06-14T02:00:18;25.70;37.00
7077;DHT22;3579;48.956;9.154;2023-06-14T02:02:44;25.70;37.00
7077;DHT22;3579;48.956;9.154;2023-06-14T02:05:11;25.70;37.10
7077;DHT22;3579;48.956;9.154;2023-06-14T02:07:37;25.70;37.10
7077;DHT22;3579;48.956;9.154;2023-06-14T02:10:04;25.70;37.10
7077;DHT22;3579;48.956;9.154;2023-06-14T02:12:30;25.60;37.10
7077;DHT22;3579;48.956;9.154;2023-06-14T02:14:56;25.60;37.10
7077;DHT22;3579;48.956;9.154;2023-06-14T02:17:23;25.60;37.10
7077;DHT22;3579;48.956;9.154;2023-06-14T02:19:50;25.60;37.10
7077;DHT22;3579;48.956;9.154;2023-06-14T02:22:17;25.60;37.10
7077;DHT22;3579;48.956;9.154;2023-06-14T02:24:43;25.60;37.10
7077;DHT22;3579;48.956;9.154;2023-06-14T02:27:09;25.60;37.10
7077;DHT22;3579;48.956;9.154;2023-06-14T02:29:38;25.60;37.10
7077;DHT22;3579;48.956;9.154;2023-06-14T02:32:05;25.50;37.10
7077;DHT22;3579;48.956;9.154;2023-06-14T02:34:33;25.50;37.20
7077;DHT22;3579;48.956;9.154;2023-06-14T02:37:00;25.50;37.20
7077;DHT22;3579;48.956;9.154;2023-06-14T02:39:29;25.50;37.20
7077;DHT22;3579;48.956;9.154;2023-06-14T02:41:55;25.50;37.20
7077;DHT22;3579;48.956;9.154;2023-06-14T02:44:25;25.50;37.30
7077;DHT22;3579;48.956;9.154;2023-06-14T02:46:54;25.50;37.30
7077;DHT22;3579;48.956;9.154;2023-06-14T02:49:21;25.50;37.30
7077;DHT22;3579;48.956;9.154;2023-06-14T02:51:48;25.40;37.30
7077;DHT22;3579;48.956;9.154;2023-06-14T02:54:14;25.40;37.90
7077;DHT22;3579;48.956;9.154;2023-06-14T02:56:40;25.40;37.30
7077;DHT22;3579;48.956;9.154;2023-06-14T02:59:07;25.40;37.30
7077;DHT22;3579;48.956;9.154;2023-06-14T03:01:35;25.30;37.30
7077;DHT22;3579;48.956;9.154;2023-06-14T03:04:01;25.30;37.30
7077;DHT22;3579;48.956;9.154;2023-06-14T03:06:29;25.30;37.30
7077;DHT22;3579;48.956;9.154;2023-06-14T03:08:57;25.30;37.90
7077;DHT22;3579;48.956;9.154;2023-06-14T03:11:31;25.30;37.40
7077;DHT22;3579;48.956;9.154;2023-06-14T03:13:57;25.30;37.40
7077;DHT22;3579;48.956;9.154;2023-06-14T03:16:24;25.30;37.30
7077;DHT22;3579;48.956;9.154;2023-06-14T03:18:53;25.30;37.40
7077;DHT22;3579;48.956;9.154;2023-06-14T03:21:20;25.30;37.50
7077;DHT22;3579;48.956;9.154;2023-06-14T03:23:46;25.30;37.40
7077;DHT22;3579;48.956;9.154;2023-06-14T03:26:13;25.30;37.40
7077;DHT22;3579;48.956;9.154;2023-06-14T03:28:40;25.30;37.40
7077;DHT22;3579;48.956;9.154;2023-06-14T03:31:07;25.20;37.40
7077;DHT22;3579;48.956;9.154;2023-06-14T03:33:34;25.20;37.40
7077;DHT22;3579;48.956;9.154;2023-06-14T03:36:02;25.20;37.40
7077;DHT22;3579;48.956;9.154;2023-06-14T03:38:28;25.20;37.50
7077;DHT22;3579;48.956;9.154;2023-06-14T03:40:54;25.20;37.40
7077;DHT22;3579;48.956;9.154;2023-06-14T03:43:21;25.20;37.40
7077;DHT22;3579;48.956;9.154;2023-06-14T03:45:47;25.20;37.50
7077;DHT22;3579;48.956;9.154;2023-06-14T03:48:13;25.20;37.50
7077;DHT22;3579;48.956;9.154;2023-06-14T03:50:39;25.20;37.50
7077;DHT22;3579;48.956;9.154;2023-06-14T03:53:05;25.20;37.50
7077;DHT22;3579;48.956;9.154;2023-06-14T03:55:31;25.20;37.50
7077;DHT22;3579;48.956;9.154;2023-06-14T03:57:59;25.20;37.40
7077;DHT22;3579;48.956;9.154;2023-06-14T04:00:25;25.20;37.40
7077;DHT22;3579;48.956;9.154;2023-06-14T04:02:51;25.20;37.40
7077;DHT22;3579;48.956;9.154;2023-06-14T04:05:17;25.20;37.40
7077;DHT22;3579;48.956;9.154;2023-06-14T04:07:48;25.20;37.40
7077;DHT22;3579;48.956;9.154;2023-06-14T04:10:15;25.30;37.50
7077;DHT22;3579;48.956;9.154;2023-06-14T04:12:42;25.30;37.50
7077;DHT22;3579;48.956;9.154;2023-06-14T04:15:09;25.30;37.50
7077;DHT22;3579;48.956;9.154;2023-06-14T04:17:36;25.30;37.50
7077;DHT22;3579;48.956;9.154;2023-06-14T04:20:03;25.30;37.50
7077;DHT22;3579;48.956;9.154;2023-06-14T04:22:32;25.30;37.50
7077;DHT22;3579;48.956;9.154;2023-06-14T04:24:59;25.30;37.50
7077;DHT22;3579;48.956;9.154;2023-06-14T04:27:26;25.40;37.50
7077;DHT22;3579;48.956;9.154;2023-06-14T04:29:54;25.40;37.50
7077;DHT22;3579;48.956;9.154;2023-06-14T04:32:24;25.40;37.50
7077;DHT22;3579;48.956;9.154;2023-06-14T04:34:54;25.40;37.40
7077;DHT22;3579;48.956;9.154;2023-06-14T04:37:23;25.40;37.40
7077;DHT22;3579;48.956;9.154;2023-06-14T04:39:49;25.50;37.60
7077;DHT22;3579;48.956;9.154;2023-06-14T04:42:16;25.50;37.50
7077;DHT22;3579;48.956;9.154;2023-06-14T04:44:42;25.50;37.50
7077;DHT22;3579;48.956;9.154;2023-06-14T04:47:10;25.50;37.50
7077;DHT22;3579;48.956;9.154;2023-06-14T04:49:38;25.50;37.50
7077;DHT22;3579;48.956;9.154;2023-06-14T04:52:06;25.50;37.50
7077;DHT22;3579;48.956;9.154;2023-06-14T04:54:33;25.50;37.40
7077;DHT22;3579;48.956;9.154;2023-06-14T04:56:59;25.60;37.50
7077;DHT22;3579;48.956;9.154;2023-06-14T04:59:25;25.60;37.50
7077;DHT22;3579;48.956;9.154;2023-06-14T05:01:52;25.60;37.40
7077;DHT22;3579;48.956;9.154;2023-06-14T05:04:19;25.60;37.40
7077;DHT22;3579;48.956;9.154;2023-06-14T05:06:45;25.60;37.30
7077;DHT22;3579;48.956;9.154;2023-06-14T05:09:14;25.60;37.30
7077;DHT22;3579;48.956;9.154;2023-06-14T05:11:43;25.70;37.30
7077;DHT22;3579;48.956;9.154;2023-06-14T05:14:13;25.70;37.40
7077;DHT22;3579;48.956;9.154;2023-06-14T05:16:40;25.70;37.40
7077;DHT22;3579;48.956;9.154;2023-06-14T05:19:06;25.80;37.50
7077;DHT22;3579;48.956;9.154;2023-06-14T05:21:33;25.80;37.40
7077;DHT22;3579;48.956;9.154;2023-06-14T05:24:01;25.80;37.40
7077;DHT22;3579;48.956;9.154;2023-06-14T05:26:27;25.80;37.30
7077;DHT22;3579;48.956;9.154;2023-06-14T05:28:58;25.90;37.40
7077;DHT22;3579;48.956;9.154;2023-06-14T05:31:24;25.90;37.30
7077;DHT22;3579;48.956;9.154;2023-06-14T05:33:52;26.00;37.40
7077;DHT22;3579;48.956;9.154;2023-06-14T05:36:19;26.00;37.30
7077;DHT22;3579;48.956;9.154;2023-06-14T05:38:45;26.00;37.30
7077;DHT22;3579;48.956;9.154;2023-06-14T05:41:11;26.10;37.40
7077;DHT22;3579;48.956;9.154;2023-06-14T05:43:37;26.10;37.30
7077;DHT22;3579;48.956;9.154;2023-06-14T05:46:04;26.10;37.30
7077;DHT22;3579;48.956;9.154;2023-06-14T05:48:33;26.10;37.30
7077;DHT22;3579;48.956;9.154;2023-06-14T05:50:59;26.10;37.30
7077;DHT22;3579;48.956;9.154;2023-06-14T05:53:25;26.20;37.30
7077;DHT22;3579;48.956;9.154;2023-06-14T05:55:51;26.20;37.20
7077;DHT22;3579;48.956;9.154;2023-06-14T05:58:19;26.20;37.20
7077;DHT22;3579;48.956;9.154;2023-06-14T06:00:45;26.20;37.20
7077;DHT22;3579;48.956;9.154;2023-06-14T06:03:12;26.30;37.20
7077;DHT22;3579;48.956;9.154;2023-06-14T06:05:39;26.30;37.30
7077;DHT22;3579;48.956;9.154;2023-06-14T06:08:05;26.30;37.30
7077;DHT22;3579;48.956;9.154;2023-06-14T06:10:31;26.30;37.20
7077;DHT22;3579;48.956;9.154;2023-06-14T06:12:57;26.40;37.30
7077;DHT22;3579;48.956;9.154;2023-06-14T06:15:23;26.40;37.20
7077;DHT22;3579;48.956;9.154;2023-06-14T06:17:49;26.40;37.30
7077;DHT22;3579;48.956;9.154;2023-06-14T06:20:17;26.40;37.30
7077;DHT22;3579;48.956;9.154;2023-06-14T06:22:43;26.40;37.20
7077;DHT22;3579;48.956;9.154;2023-06-14T06:25:10;26.40;37.20
7077;DHT22;3579;48.956;9.154;2023-06-14T06:27:36;26.50;37.20
7077;DHT22;3579;48.956;9.154;2023-06-14T06:30:06;26.50;37.20
7077;DHT22;3579;48.956;9.154;2023-06-14T06:32:32;26.50;37.20
7077;DHT22;3579;48.956;9.154;2023-06-14T06:34:58;26.50;37.20
7077;DHT22;3579;48.956;9.154;2023-06-14T06:37:25;26.50;37.20
7077;DHT22;3579;48.956;9.154;2023-06-14T06:39:51;26.60;37.30
7077;DHT22;3579;48.956;9.154;2023-06-14T06:42:18;26.60;37.30
7077;DHT22;3579;48.956;9.154;2023-06-14T06:44:44;26.60;37.30
7077;DHT22;3579;48.956;9.154;2023-06-14T06:47:10;26.60;37.20
7077;DHT22;3579;48.956;9.154;2023-06-14T06:49:37;26.60;37.20
7077;DHT22;3579;48.956;9.154;2023-06-14T06:52:06;26.60;37.20
7077;DHT22;3579;48.956;9.154;2023-06-14T06:54:33;26.60;37.30
7077;DHT22;3579;48.956;9.154;2023-06-14T06:57:00;26.60;37.20
7077;DHT22;3579;48.956;9.154;2023-06-14T06:59:27;26.60;37.20
7077;DHT22;3579;48.956;9.154;2023-06-14T07:01:53;26.60;37.10
7077;DHT22;3579;48.956;9.154;2023-06-14T07:04:19;26.70;37.20
7077;DHT22;3579;48.956;9.154;2023-06-14T07:06:46;26.70;37.20
7077;DHT22;3579;48.956;9.154;2023-06-14T07:09:13;26.70;37.20
7077;DHT22;3579;48.956;9.154;2023-06-14T07:11:42;26.70;37.20
7077;DHT22;3579;48.956;9.154;2023-06-14T07:14:08;26.70;37.20
7077;DHT22;3579;48.956;9.154;2023-06-14T07:16:34;26.70;37.10
7077;DHT22;3579;48.956;9.154;2023-06-14T07:19:02;26.70;37.10
7077;DHT22;3579;48.956;9.154;2023-06-14T07:21:29;26.70;37.10
7077;DHT22;3579;48.956;9.154;2023-06-14T07:23:55;26.70;37.10
7077;DHT22;3579;48.956;9.154;2023-06-14T07:26:22;26.70;37.10
7077;DHT22;3579;48.956;9.154;2023-06-14T07:28:49;26.70;37.10
7077;DHT22;3579;48.956;9.154;2023-06-14T07:31:15;26.80;37.10
7077;DHT22;3579;48.956;9.154;2023-06-14T07:33:42;26.80;37.10
7077;DHT22;3579;48.956;9.154;2023-06-14T07:36:08;26.80;37.10
7077;DHT22;3579;48.956;9.154;2023-06-14T07:38:34;26.80;37.10
7077;DHT22;3579;48.956;9.154;2023-06-14T07:41:00;26.80;37.10
7077;DHT22;3579;48.956;9.154;2023-06-14T07:43:27;26.80;37.00
7077;DHT22;3579;48.956;9.154;2023-06-14T07:45:53;26.80;37.00
7077;DHT22;3579;48.956;9.154;2023-06-14T07:48:19;26.80;37.00
7077;DHT22;3579;48.956;9.154;2023-06-14T07:50:45;26.90;37.10
7077;DHT22;3579;48.956;9.154;2023-06-14T07:53:11;26.90;37.00
7077;DHT22;3579;48.956;9.154;2023-06-14T07:55:37;26.90;37.00
7077;DHT22;3579;48.956;9.154;2023-06-14T07:58:08;26.90;37.00
7077;DHT22;3579;48.956;9.154;2023-06-14T08:00:34;26.90;37.00
7077;DHT22;3579;48.956;9.154;2023-06-14T08:03:00;26.90;37.00
7077;DHT22;3579;48.956;9.154;2023-06-14T08:05:27;27.00;37.00
7077;DHT22;3579;48.956;9.154;2023-06-14T08:07:54;27.00;37.00
7077;DHT22;3579;48.956;9.154;2023-06-14T08:10:21;27.00;37.00
7077;DHT22;3579;48.956;9.154;2023-06-14T08:12:47;27.00;37.00
7077;DHT22;3579;48.956;9.154;2023-06-14T08:15:16;27.00;37.00
7077;DHT22;3579;48.956;9.154;2023-06-14T08:17:43;27.00;37.00
7077;DHT22;3579;48.956;9.154;2023-06-14T08:20:10;27.00;37.00
7077;DHT22;3579;48.956;9.154;2023-06-14T08:22:36;27.10;37.00
7077;DHT22;3579;48.956;9.154;2023-06-14T08:25:03;27.10;37.00
7077;DHT22;3579;48.956;9.154;2023-06-14T08:27:30;27.10;37.00
7077;DHT22;3579;48.956;9.154;2023-06-14T08:29:56;27.10;37.00
7077;DHT22;3579;48.956;9.154;2023-06-14T08:32:22;27.10;37.00
7077;DHT22;3579;48.956;9.154;2023-06-14T08:34:48;27.10;37.00
7077;DHT22;3579;48.956;9.154;2023-06-14T08:37:15;27.10;37.00
7077;DHT22;3579;48.956;9.154;2023-06-14T08:39:41;27.10;37.00
7077;DHT22;3579;48.956;9.154;2023-06-14T08:42:09;27.20;37.10
7077;DHT22;3579;48.956;9.154;2023-06-14T08:44:36;27.20;37.00
7077;DHT22;3579;48.956;9.154;2023-06-14T08:47:02;27.20;37.00
7077;DHT22;3579;48.956;9.154;2023-06-14T08:49:32;27.20;36.90
7077;DHT22;3579;48.956;9.154;2023-06-14T08:52:00;27.20;36.90
7077;DHT22;3579;48.956;9.154;2023-06-14T08:54:28;27.20;37.00
7077;DHT22;3579;48.956;9.154;2023-06-14T08:56:56;27.30;37.00
7077;DHT22;3579;48.956;9.154;2023-06-14T08:59:26;27.30;37.00
7077;DHT22;3579;48.956;9.154;2023-06-14T09:01:53;27.30;37.00
7077;DHT22;3579;48.956;9.154;2023-06-14T09:04:23;27.30;37.00
7077;DHT22;3579;48.956;9.154;2023-06-14T09:06:56;27.30;37.00
7077;DHT22;3579;48.956;9.154;2023-06-14T09:09:22;27.30;37.00
7077;DHT22;3579;48.956;9.154;2023-06-14T09:11:50;27.30;36.90
7077;DHT22;3579;48.956;9.154;2023-06-14T09:14:18;27.40;37.00
7077;DHT22;3579;48.956;9.154;2023-06-14T09:16:45;27.40;36.90
7077;DHT22;3579;48.956;9.154;2023-06-14T09:19:24;27.40;36.90
7077;DHT22;3579;48.956;9.154;2023-06-14T09:21:50;27.40;37.00
7077;DHT22;3579;48.956;9.154;2023-06-14T09:24:19;27.40;36.90
7077;DHT22;3579;48.956;9.154;2023-06-14T09:26:47;27.40;36.90
7077;DHT22;3579;48.956;9.154;2023-06-14T09:29:16;27.40;36.90
7077;DHT22;3579;48.956;9.154;2023-06-14T09:31:42;27.40;36.90
7077;DHT22;3579;48.956;9.154;2023-06-14T09:34:09;27.50;37.00
7077;DHT22;3579;48.956;9.154;2023-06-14T09:36:35;27.50;36.90
7077;DHT22;3579;48.956;9.154;2023-06-14T09:39:03;27.50;37.00
7077;DHT22;3579;48.956;9.154;2023-06-14T09:41:37;27.50;36.90
7077;DHT22;3579;48.956;9.154;2023-06-14T09:44:04;27.50;37.50
7077;DHT22;3579;48.956;9.154;2023-06-14T09:46:31;27.50;36.90
7077;DHT22;3579;48.956;9.154;2023-06-14T09:48:58;27.50;36.90
7077;DHT22;3579;48.956;9.154;2023-06-14T09:51:25;27.50;36.90
7077;DHT22;3579;48.956;9.154;2023-06-14T09:53:53;27.50;36.90
7077;DHT22;3579;48.956;9.154;2023-06-14T09:56:28;27.60;36.90
7077;DHT22;3579;48.956;9.154;2023-06-14T09:58:58;27.60;36.90
7077;DHT22;3579;48.956;9.154;2023-06-14T10:01:26;27.60;36.90
7077;DHT22;3579;48.956;9.154;2023-06-14T10:04:06;27.60;36.90
7077;DHT22;3579;48.956;9.154;2023-06-14T10:06:36;27.60;36.90
7077;DHT22;3579;48.956;9.154;2023-06-14T10:09:04;27.60;36.90
7077;DHT22;3579;48.956;9.154;2023-06-14T10:11:32;27.60;36.80
7077;DHT22;3579;48.956;9.154;2023-06-14T10:14:03;27.70;36.90
7077;DHT22;3579;48.956;9.154;2023-06-14T10:16:49;27.70;36.90
7077;DHT22;3579;48.956;9.154;2023-06-14T10:19:43;27.70;36.80
7077;DHT22;3579;48.956;9.154;2023-06-14T10:22:14;27.70;36.90
7077;DHT22;3579;48.956;9.154;2023-06-14T10:24:44;27.80;36.90
7077;DHT22;3579;48.956;9.154;2023-06-14T10:27:13;27.70;36.80
7077;DHT22;3579;48.956;9.154;2023-06-14T10:32:25;27.80;36.70
7077;DHT22;3579;48.956;9.154;2023-06-14T10:35:01;27.80;36.70
7077;DHT22;3579;48.956;9.154;2023-06-14T10:37:29;27.80;36.70
7077;DHT22;3579;48.956;9.154;2023-06-14T10:39:56;27.80;36.60
7077;DHT22;3579;48.956;9.154;2023-06-14T10:42:23;27.80;36.60
7077;DHT22;3579;48.956;9.154;2023-06-14T10:44:54;27.80;36.60
7077;DHT22;3579;48.956;9.154;2023-06-14T10:47:31;27.80;36.60
7077;DHT22;3579;48.956;9.154;2023-06-14T10:50:08;27.80;36.50
7077;DHT22;3579;48.956;9.154;2023-06-14T10:52:39;27.90;36.50
7077;DHT22;3579;48.956;9.154;2023-06-14T10:57:42;27.90;36.50
7077;DHT22;3579;48.956;9.154;2023-06-14T11:00:10;27.90;36.50
7077;DHT22;3579;48.956;9.154;2023-06-14T11:05:49;27.90;36.40
7077;DHT22;3579;48.956;9.154;2023-06-14T11:11:08;28.00;36.50
7077;DHT22;3579;48.956;9.154;2023-06-14T11:13:44;28.00;36.40
7077;DHT22;3579;48.956;9.154;2023-06-14T11:16:12;28.00;36.30
7077;DHT22;3579;48.956;9.154;2023-06-14T11:18:38;28.00;36.30
7077;DHT22;3579;48.956;9.154;2023-06-14T11:21:04;28.00;36.30
7077;DHT22;3579;48.956;9.154;2023-06-14T11:23:31;28.00;36.30
7077;DHT22;3579;48.956;9.154;2023-06-14T11:25:57;28.00;36.30
7077;DHT22;3579;48.956;9.154;2023-06-14T11:28:23;28.10;36.20
7077;DHT22;3579;48.956;9.154;2023-06-14T11:31:00;28.10;36.10
7077;DHT22;3579;48.956;9.154;2023-06-14T11:33:26;28.10;36.30
7077;DHT22;3579;48.956;9.154;2023-06-14T11:35:52;28.10;36.20
7077;DHT22;3579;48.956;9.154;2023-06-14T11:38:18;28.10;36.20
7077;DHT22;3579;48.956;9.154;2023-06-14T11:40:46;28.10;36.20
7077;DHT22;3579;48.956;9.154;2023-06-14T11:43:12;28.10;36.10
7077;DHT22;3579;48.956;9.154;2023-06-14T11:45:39;28.10;36.10
7077;DHT22;3579;48.956;9.154;2023-06-14T11:48:06;28.20;36.20
7077;DHT22;3579;48.956;9.154;2023-06-14T11:50:32;28.20;36.20
7077;DHT22;3579;48.956;9.154;2023-06-14T11:53:00;28.20;36.10
7077;DHT22;3579;48.956;9.154;2023-06-14T11:55:38;28.20;36.10
7077;DHT22;3579;48.956;9.154;2023-06-14T11:58:05;28.20;36.00
7077;DHT22;3579;48.956;9.154;2023-06-14T12:00:31;28.30;36.10
7077;DHT22;3579;48.956;9.154;2023-06-14T12:02:58;28.30;36.00
7077;DHT22;3579;48.956;9.154;2023-06-14T12:05:25;28.30;36.00
7077;DHT22;3579;48.956;9.154;2023-06-14T12:08:02;28.30;36.00
7077;DHT22;3579;48.956;9.154;2023-06-14T12:10:29;28.30;36.00
7077;DHT22;3579;48.956;9.154;2023-06-14T12:12:59;28.30;35.90
7077;DHT22;3579;48.956;9.154;2023-06-14T12:15:28;28.30;35.80
7077;DHT22;3579;48.956;9.154;2023-06-14T12:17:55;28.30;35.80
7077;DHT22;3579;48.956;9.154;2023-06-14T12:20:21;28.40;35.90
7077;DHT22;3579;48.956;9.154;2023-06-14T12:22:51;28.40;35.90
7077;DHT22;3579;48.956;9.154;2023-06-14T12:25:31;28.40;35.90
7077;DHT22;3579;48.956;9.154;2023-06-14T12:28:06;28.40;35.90
7077;DHT22;3579;48.956;9.154;2023-06-14T12:30:33;28.40;35.90
7077;DHT22;3579;48.956;9.154;2023-06-14T12:32:59;28.40;35.80
7077;DHT22;3579;48.956;9.154;2023-06-14T12:35:26;28.40;35.90
7077;DHT22;3579;48.956;9.154;2023-06-14T12:37:52;28.40;35.90
7077;DHT22;3579;48.956;9.154;2023-06-14T12:40:18;28.40;35.90
7077;DHT22;3579;48.956;9.154;2023-06-14T12:42:45;28.40;35.90
7077;DHT22;3579;48.956;9.154;2023-06-14T12:45:13;28.40;35.90
7077;DHT22;3579;48.956;9.154;2023-06-14T12:47:39;28.50;35.90
7077;DHT22;3579;48.956;9.154;2023-06-14T12:50:06;28.50;35.90
7077;DHT22;3579;48.956;9.154;2023-06-14T12:52:32;28.50;35.90
7077;DHT22;3579;48.956;9.154;2023-06-14T12:55:03;28.50;35.80
7077;DHT22;3579;48.956;9.154;2023-06-14T12:57:30;28.60;35.80
7077;DHT22;3579;48.956;9.154;2023-06-14T12:59:56;28.60;35.70
7077;DHT22;3579;48.956;9.154;2023-06-14T13:02:22;28.60;35.70
7077;DHT22;3579;48.956;9.154;2023-06-14T13:04:49;28.70;35.60
7077;DHT22;3579;48.956;9.154;2023-06-14T13:07:16;28.70;35.70
7077;DHT22;3579;48.956;9.154;2023-06-14T13:09:43;28.60;35.70
7077;DHT22;3579;48.956;9.154;2023-06-14T13:12:12;28.70;35.60
7077;DHT22;3579;48.956;9.154;2023-06-14T13:14:39;28.70;36.30
7077;DHT22;3579;48.956;9.154;2023-06-14T13:17:08;28.70;35.70
7077;DHT22;3579;48.956;9.154;2023-06-14T13:19:34;28.70;35.60
7077;DHT22;3579;48.956;9.154;2023-06-14T13:22:00;28.70;35.70
7077;DHT22;3579;48.956;9.154;2023-06-14T13:24:26;28.70;35.70
7077;DHT22;3579;48.956;9.154;2023-06-14T13:26:54;28.70;35.70
7077;DHT22;3579;48.956;9.154;2023-06-14T13:29:20;28.70;35.70
7077;DHT22;3579;48.956;9.154;2023-06-14T13:31:46;28.70;35.70
7077;DHT22;3579;48.956;9.154;2023-06-14T13:34:12;28.70;35.70
7077;DHT22;3579;48.956;9.154;2023-06-14T13:36:39;28.70;35.70
7077;DHT22;3579;48.956;9.154;2023-06-14T13:39:05;28.70;35.70
7077;DHT22;3579;48.956;9.154;2023-06-14T13:41:31;28.70;35.70
7077;DHT22;3579;48.956;9.154;2023-06-14T13:44:00;28.70;35.70
7077;DHT22;3579;48.956;9.154;2023-06-14T13:46:26;28.70;35.70
7077;DHT22;3579;48.956;9.154;2023-06-14T13:48:52;28.70;35.70
7077;DHT22;3579;48.956;9.154;2023-06-14T13:51:18;28.70;35.70
7077;DHT22;3579;48.956;9.154;2023-06-14T13:53:48;28.70;36.20
7077;DHT22;3579;48.956;9.154;2023-06-14T13:56:15;28.70;35.70
7077;DHT22;3579;48.956;9.154;2023-06-14T13:58:41;28.70;35.70
7077;DHT22;3579;48.956;9.154;2023-06-14T14:01:08;28.80;35.70
7077;DHT22;3579;48.956;9.154;2023-06-14T14:03:35;28.80;35.80
7077;DHT22;3579;48.956;9.154;2023-06-14T14:06:01;28.80;35.80
7077;DHT22;3579;48.956;9.154;2023-06-14T14:08:28;28.80;35.80
7077;DHT22;3579;48.956;9.154;2023-06-14T14:10:54;28.80;35.80
7077;DHT22;3579;48.956;9.154;2023-06-14T14:13:22;28.80;35.80
7077;DHT22;3579;48.956;9.154;2023-06-14T14:15:48;28.80;35.80
7077;DHT22;3579;48.956;9.154;2023-06-14T14:18:16;28.80;35.80
7077;DHT22;3579;48.956;9.154;2023-06-14T14:20:43;28.80;35.80
7077;DHT22;3579;48.956;9.154;2023-06-14T14:23:09;28.80;35.80
7077;DHT22;3579;48.956;9.154;2023-06-14T14:25:35;28.80;35.80
7077;DHT22;3579;48.956;9.154;2023-06-14T14:28:01;28.80;35.80
7077;DHT22;3579;48.956;9.154;2023-06-14T14:30:27;28.80;35.80
7077;DHT22;3579;48.956;9.154;2023-06-14T14:32:53;28.80;35.80
7077;DHT22;3579;48.956;9.154;2023-06-14T14:35:19;28.80;35.70
7077;DHT22;3579;48.956;9.154;2023-06-14T14:37:46;28.80;35.70
7077;DHT22;3579;48.956;9.154;2023-06-14T14:40:12;28.90;35.70
7077;DHT22;3579;48.956;9.154;2023-06-14T14:42:38;28.90;35.70
7077;DHT22;3579;48.956;9.154;2023-06-14T14:45:06;28.90;35.60
7077;DHT22;3579;48.956;9.154;2023-06-14T14:47:32;28.90;35.60
7077;DHT22;3579;48.956;9.154;2023-06-14T14:49:58;28.80;35.60
7077;DHT22;3579;48.956;9.154;2023-06-14T14:52:24;28.90;35.60
7077;DHT22;3579;48.956;9.154;2023-06-14T14:54:52;28.90;35.60
7077;DHT22;3579;48.956;9.154;2023-06-14T14:57:19;28.90;35.70
7077;DHT22;3579;48.956;9.154;2023-06-14T14:59:45;28.90;35.60
7077;DHT22;3579;48.956;9.154;2023-06-14T15:02:11;28.90;35.70
7077;DHT22;3579;48.956;9.154;2023-06-14T15:04:37;28.90;35.70
7077;DHT22;3579;48.956;9.154;2023-06-14T15:07:03;29.00;35.70
7077;DHT22;3579;48.956;9.154;2023-06-14T15:09:29;29.00;35.70
7077;DHT22;3579;48.956;9.154;2023-06-14T15:11:55;29.00;35.70
7077;DHT22;3579;48.956;9.154;2023-06-14T15:14:21;29.00;35.70
7077;DHT22;3579;48.956;9.154;2023-06-14T15:16:47;29.00;35.60
7077;DHT22;3579;48.956;9.154;2023-06-14T15:19:13;29.00;35.70
7077;DHT22;3579;48.956;9.154;2023-06-14T15:21:39;29.00;35.60
7077;DHT22;3579;48.956;9.154;2023-06-14T15:24:06;29.00;35.70
7077;DHT22;3579;48.956;9.154;2023-06-14T15:26:33;29.00;35.60
7077;DHT22;3579;48.956;9.154;2023-06-14T15:28:59;29.00;35.70
7077;DHT22;3579;48.956;9.154;2023-06-14T15:31:25;29.00;35.60
7077;DHT22;3579;48.956;9.154;2023-06-14T15:33:53;29.00;35.60
7077;DHT22;3579;48.956;9.154;2023-06-14T15:36:19;29.00;35.70
7077;DHT22;3579;48.956;9.154;2023-06-14T15:38:45;29.00;35.70
7077;DHT22;3579;48.956;9.154;2023-06-14T15:41:11;29.00;36.30
7077;DHT22;3579;48.956;9.154;2023-06-14T15:43:37;29.00;35.70
7077;DHT22;3579;48.956;9.154;2023-06-14T15:46:03;29.00;35.70
7077;DHT22;3579;48.956;9.154;2023-06-14T15:48:29;29.00;35.60
7077;DHT22;3579;48.956;9.154;2023-06-14T15:50:55;29.00;35.60
7077;DHT22;3579;48.956;9.154;2023-06-14T15:53:21;29.00;35.60
7077;DHT22;3579;48.956;9.154;2023-06-14T15:55:47;29.00;35.60
7077;DHT22;3579;48.956;9.154;2023-06-14T15:58:13;29.00;35.60
7077;DHT22;3579;48.956;9.154;2023-06-14T16:00:40;29.00;35.60
7077;DHT22;3579;48.956;9.154;2023-06-14T16:03:06;29.00;35.60
7077;DHT22;3579;48.956;9.154;2023-06-14T16:05:32;29.00;35.60
7077;DHT22;3579;48.956;9.154;2023-06-14T16:07:58;29.00;35.60
7077;DHT22;3579;48.956;9.154;2023-06-14T16:10:24;29.00;35.60
7077;DHT22;3579;48.956;9.154;2023-06-14T16:12:50;29.00;35.70
7077;DHT22;3579;48.956;9.154;2023-06-14T16:15:16;29.00;35.70
7077;DHT22;3579;48.956;9.154;2023-06-14T16:17:42;29.00;35.70
7077;DHT22;3579;48.956;9.154;2023-06-14T16:20:08;29.00;35.70